• Join FlightAware (Why Join?)
  • Login
  • US Flag 
09:26AM EST


 

Airport Tracker/Info


-or-


 

Live Flight TrackerFlight Track Log ✈ CPT7773 ✈ 01-May-2013 ✈ KCOD - KCPR

Flight Track Log - Related Links

Times and Time Zones

All times are in EDT time to prevent confusion due to time zone crossing. See the CPT7773 flight status page for this flight to view local times or setup timezone preferences in your user account.

Time Position Orientation Groundspeed Altitude Reporting Facility
EDT Latitude Longitude Course Direction KTS MPH feet Rate Location/Type
08:09PM 44.4844 -108.9147 120° Southeast 125 144 8,300  Level Salt Lake Center
08:10PM 44.4631 -108.8761 128° Southeast 127 146 9,500 1,140 Climbing Salt Lake Center
08:11PM 44.4386 -108.8319 128° Southeast 128 147 10,700 720 Climbing Salt Lake Center
08:12PM 44.4161 -108.7903 127° Southeast 132 152 11,000 60 Climbing Salt Lake Center
08:13PM 44.3853 -108.7356 128° Southeast 146 168 10,900  Descending Salt Lake Center
08:14PM 44.3956 -108.7492 120° Southeast  Level FlightAware Approximate
08:14PM 44.3586 -108.6850 126° Southeast 158 182 11,000  Level Salt Lake Center
08:15PM 44.3289 -108.6283 126° Southeast 162 186 11,000  Level Salt Lake Center
08:16PM 44.3039 -108.5800 126° Southeast 162 186 11,000  Level Salt Lake Center
08:17PM 44.2775 -108.5333 128° Southeast 161 185 11,000  Level Salt Lake Center
08:18PM 44.2475 -108.4761 126° Southeast 162 186 11,000  Level Salt Lake Center
08:19PM 44.2214 -108.4281 127° Southeast 163 188 11,000  Level Salt Lake Center
08:20PM 44.1903 -108.3703 127° Southeast 165 190 11,000  Level Salt Lake Center
08:21PM 44.1631 -108.3211 128° Southeast 166 191 11,000  Level Salt Lake Center
08:23PM 44.1144 -108.2297 127° Southeast 167 192 11,000  Level Denver Center
08:25PM 44.0583 -108.1250 127° Southeast 163 188 11,000  Level Denver Center
08:26PM 44.0489 -108.1108 133° Southeast 163 188 11,000  Level Salt Lake Center
08:27PM 44.0219 -108.0625 128° Southeast 164 189 11,000  Level Salt Lake Center
08:28PM 43.9897 -108.0053 128° Southeast 166 191 11,000  Level Salt Lake Center
08:29PM 43.9639 -107.9553 126° Southeast 167 192 11,000  Level Salt Lake Center
08:30PM 43.9336 -107.8986 127° Southeast 165 190 11,000  Level Salt Lake Center
08:31PM 43.9094 -107.8486 124° Southeast 164 189 11,000  Level Salt Lake Center
08:32PM 43.8789 -107.7892 125° Southeast 167 192 11,000  Level Salt Lake Center
08:33PM 43.8533 -107.7400 126° Southeast 166 191 11,000  Level Salt Lake Center
08:34PM 43.8281 -107.6911 126° Southeast 165 190 11,000  Level Salt Lake Center
08:35PM 43.7983 -107.6339 126° Southeast 164 189 11,000  Level Salt Lake Center
08:36PM 43.7733 -107.5858 126° Southeast 163 188 11,000  Level Salt Lake Center
08:37PM 43.7444 -107.5278 125° Southeast 163 188 11,000  Level Salt Lake Center
08:38PM 43.7192 -107.4792 126° Southeast 163 188 11,000  Level Salt Lake Center
08:39PM 43.6900 -107.4242 126° Southeast 161 185 11,000  Level Salt Lake Center
08:40PM 43.6661 -107.3747 124° Southeast 161 185 11,000  Level Salt Lake Center
08:41PM 43.6417 -107.3264 125° Southeast 161 185 11,000  Level Salt Lake Center
08:42PM 43.6122 -107.2731 127° Southeast 159 183 11,000  Level Salt Lake Center
08:43PM 43.5875 -107.2258 126° Southeast 158 182 11,000  Level Salt Lake Center
08:44PM 43.5589 -107.1689 125° Southeast 160 184 11,000  Level Salt Lake Center
08:45PM 43.5342 -107.1231 127° Southeast 158 182 11,000  Level Salt Lake Center
08:46PM 43.5067 -107.0692 125° Southeast 155 178 11,000  Level Salt Lake Center
08:46PM 43.5042 -107.0594 110° East 155 178 11,000  Level Denver Center
08:47PM 43.4739 -107.0064 128° Southeast 158 182 11,000  Level Denver Center
08:49PM 43.4467 -106.9514 124° Southeast 156 180 11,000  Level Denver Center
08:50PM 43.4219 -106.9042 126° Southeast 157 181 11,000  Level Denver Center
08:51PM 43.3967 -106.8569 126° Southeast 157 181 11,000  Level Denver Center
08:52PM 43.3656 -106.8067 130° Southeast 156 180 11,000 -420 Level Denver Center
08:53PM 43.3256 -106.7794 154° Southeast 164 189 10,200 -540 Descending Denver Center
08:54PM 43.2800 -106.7475 153° Southeast 164 189 10,000 -120 Descending Denver Center
08:55PM 43.2453 -106.7192 149° Southeast 155 178 10,000 -420 Level Denver Center
08:56PM 43.2042 -106.6850 149° Southeast 152 175 9,200 -780 Descending Denver Center
08:57PM 43.1650 -106.6564 152° Southeast 158 182 8,500 -720 Descending Denver Center
08:58PM 43.1253 -106.6283 153° Southeast 163 188 7,800 -540 Descending Denver Center
08:59PM 43.0786 -106.5969 154° Southeast 166 191 7,500 -300 Descending Denver Center
09:00PM 43.0414 -106.5731 155° Southeast 165 190 7,300 -240 Descending Denver Center
09:02PM 42.9764 -106.5164 147° Southeast  Level FlightAware Approximate
09:09PM 42.9080 -106.4644 151° Southeast  Level Estimated
09:10PM 42.9080 -106.4644 151° Southeast  Level Estimated
09:11PM 42.9080 -106.4644 151° Southeast  Level Estimated
09:12PM 42.9080 -106.4644 151° Southeast  Level Estimated
09:13PM 42.9080 -106.4644 151° Southeast  Level Estimated